createdAt,value
2018-10-05T00:00:00.569Z,0.89
2018-10-05T00:05:55.552Z,0.77
2018-10-05T00:11:50.537Z,0.95
2018-10-05T00:17:45.581Z,0.77
2018-10-05T00:23:40.564Z,0.85
2018-10-05T00:29:35.526Z,0.86
2018-10-05T00:35:30.522Z,0.7
2018-10-05T00:41:25.552Z,0.78
2018-10-05T00:47:20.542Z,0.78
2018-10-05T00:53:15.639Z,0.73
2018-10-05T00:59:10.585Z,0.82
2018-10-05T01:05:05.593Z,1.08
2018-10-05T01:11:00.550Z,0.79
2018-10-05T01:16:55.540Z,0.92
2018-10-05T01:22:50.551Z,0.76
2018-10-05T01:28:45.557Z,0.97
2018-10-05T01:34:40.601Z,0.73
2018-10-05T01:40:35.548Z,0.7
2018-10-05T01:46:30.547Z,0.74
2018-10-05T01:52:25.554Z,1.13
2018-10-05T01:58:20.595Z,0.75
2018-10-05T02:04:15.553Z,0.82
2018-10-05T02:27:55.558Z,0.7
2018-10-05T02:27:55.685Z,0.81
2018-10-05T02:27:55.705Z,0.81
2018-10-05T02:27:55.746Z,0.81
2018-10-05T02:33:50.569Z,0.94
2018-10-05T02:39:45.537Z,1.12
2018-10-05T02:45:40.580Z,0.84
2018-10-05T02:51:35.534Z,0.88
2018-10-05T02:57:30.536Z,1.03
2018-10-05T03:03:25.558Z,0.76
2018-10-05T03:09:20.551Z,1.17
2018-10-05T03:15:15.606Z,0.91
2018-10-05T03:21:10.582Z,1.01
2018-10-05T03:27:05.549Z,0.86
2018-10-05T03:33:00.536Z,1.04
2018-10-05T03:50:45.612Z,0.74
2018-10-05T03:50:45.638Z,0.88
2018-10-05T03:50:45.661Z,0.88
2018-10-05T03:56:40.543Z,1.06
2018-10-05T04:02:35.564Z,0.91
2018-10-05T04:08:30.590Z,1.03
2018-10-05T04:14:25.564Z,1.28
2018-10-05T04:20:20.537Z,1.17
2018-10-05T04:26:15.555Z,1.06
2018-10-05T04:32:10.602Z,1.38
2018-10-05T04:38:05.605Z,1.19
2018-10-05T04:44:00.576Z,1.14
2018-10-05T04:49:55.543Z,1.24
2018-10-05T04:55:50.547Z,1.14
2018-10-05T05:01:45.553Z,1.38
2018-10-05T05:31:20.583Z,1.11
2018-10-05T05:31:20.788Z,1.43
2018-10-05T05:31:20.842Z,1.43
2018-10-05T05:31:20.853Z,1.43
2018-10-05T05:37:15.624Z,1.32
2018-10-05T05:43:10.536Z,1.19
2018-10-05T05:49:05.553Z,1.42
2018-10-05T05:55:00.563Z,1.28
2018-10-05T06:00:55.546Z,1.04
2018-10-05T06:06:50.534Z,1.4
2018-10-05T06:12:45.569Z,1.46
2018-10-05T06:18:40.539Z,1.13
2018-10-05T06:24:35.533Z,1.25
2018-10-05T06:30:30.628Z,1.1
2018-10-05T06:36:25.539Z,1.79
2018-10-05T06:42:20.614Z,1.37
2018-10-05T06:48:15.537Z,1.4
2018-10-05T06:54:10.530Z,1.14
2018-10-05T07:00:05.608Z,1.15
2018-10-05T07:06:00.555Z,1.53
2018-10-05T07:11:55.648Z,1.8
2018-10-05T07:17:50.541Z,1.43
2018-10-05T07:23:45.564Z,1.18
2018-10-05T07:29:40.539Z,1.1
2018-10-05T07:35:35.561Z,1.2
2018-10-05T07:41:30.601Z,1.42
2018-10-05T07:47:25.568Z,1.57
2018-10-05T07:53:20.644Z,1.4
2018-10-05T07:59:15.559Z,1.7
2018-10-05T08:05:10.586Z,1.28
2018-10-05T08:28:50.599Z,1.6
2018-10-05T08:28:50.732Z,1.43
2018-10-05T08:28:50.738Z,1.43
2018-10-05T08:28:50.828Z,1.43
2018-10-05T08:34:45.572Z,1.5
2018-10-05T08:40:40.620Z,1.34
2018-10-05T08:46:35.574Z,1.49
2018-10-05T08:52:30.574Z,1.7
2018-10-05T08:58:25.577Z,1.78
2018-10-05T09:04:20.613Z,1.6
2018-10-05T09:10:15.581Z,1.49
2018-10-05T09:16:10.573Z,1.61
2018-10-05T09:22:05.666Z,1.75
2018-10-05T09:28:00.602Z,1.88
2018-10-05T09:33:55.597Z,1.95
2018-10-05T09:39:50.590Z,1.94
2018-10-05T09:45:45.645Z,1.31
2018-10-05T09:51:40.640Z,1.86
2018-10-05T09:57:35.584Z,1.55
2018-10-05T10:03:30.654Z,1.56
2018-10-05T10:09:25.668Z,1.82
2018-10-05T10:15:20.619Z,1.55
2018-10-05T10:21:15.621Z,1.9
2018-10-05T10:27:10.580Z,1.84
2018-10-05T10:33:05.617Z,1.66
2018-10-05T10:39:00.657Z,1.64
2018-10-05T10:44:55.641Z,1.5
2018-10-05T10:50:50.609Z,1.61
2018-10-05T10:56:45.727Z,1.56
2018-10-05T11:02:40.623Z,2.03
2018-10-05T11:32:15.657Z,1.71
2018-10-05T11:32:15.788Z,1.66
2018-10-05T11:32:15.820Z,1.66
2018-10-05T11:32:15.901Z,1.66
2018-10-05T11:38:10.644Z,2.04
2018-10-05T11:44:05.643Z,1.55
2018-10-05T11:50:00.657Z,1.57
2018-10-05T11:55:55.695Z,1.8
2018-10-05T12:01:50.646Z,1.83
2018-10-05T12:07:45.656Z,1.77
2018-10-05T12:13:40.730Z,1.75
2018-10-05T12:19:35.653Z,1.81
2018-10-05T12:25:30.658Z,1.64
2018-10-05T12:31:25.710Z,1.74
2018-10-05T12:37:20.662Z,1.95
2018-10-05T12:43:15.700Z,1.75
2018-10-05T12:49:10.655Z,1.93
2018-10-05T12:55:05.644Z,1.64
2018-10-05T13:01:00.662Z,1.84
2018-10-05T13:06:55.729Z,2.18
2018-10-05T13:12:50.708Z,1.86
2018-10-05T13:18:45.660Z,2.02
2018-10-05T13:24:40.721Z,2.03
2018-10-05T13:30:35.717Z,1.63
2018-10-05T13:36:30.674Z,2.16
2018-10-05T13:42:25.719Z,2.27
2018-10-05T13:48:20.666Z,2.27
2018-10-05T13:54:15.711Z,2.17
2018-10-05T14:00:10.691Z,1.95
2018-10-05T14:06:05.693Z,2.48
2018-10-05T14:29:45.708Z,2.54
2018-10-05T14:29:45.737Z,6.21
2018-10-05T14:29:45.747Z,6.21
2018-10-05T14:29:45.763Z,6.21
2018-10-05T14:35:40.714Z,9.75
2018-10-05T14:41:35.846Z,8.9
2018-10-05T14:47:30.698Z,7
2018-10-05T14:53:25.715Z,5.73
2018-10-05T14:59:20.728Z,4.34
2018-10-05T15:05:15.697Z,5.92
2018-10-05T15:11:10.687Z,5.43
2018-10-05T15:17:05.707Z,12.9
2018-10-05T15:23:00.712Z,11.05
2018-10-05T15:28:55.698Z,17.35
2018-10-05T15:34:50.714Z,6.04
2018-10-05T15:40:45.753Z,3.96
2018-10-05T15:46:40.737Z,4.99
2018-10-05T15:52:35.746Z,2.97
2018-10-05T15:58:30.714Z,2.43
2018-10-05T16:04:25.731Z,2.57
2018-10-05T16:10:20.701Z,2.7
2018-10-05T16:16:15.737Z,2.42
2018-10-05T16:22:10.730Z,2.61
2018-10-05T16:28:05.721Z,2.9
2018-10-05T16:34:00.790Z,2.66
2018-10-05T16:39:55.742Z,2.7
2018-10-05T16:45:50.715Z,2.72
2018-10-05T16:51:45.763Z,2.73
2018-10-05T16:57:40.715Z,2.92
2018-10-05T17:03:35.733Z,2.98
2018-10-05T17:33:10.764Z,3.84
2018-10-05T17:33:10.811Z,3.45
2018-10-05T17:33:10.819Z,3.45
2018-10-05T17:33:10.888Z,3.45
2018-10-05T17:39:05.813Z,2.95
2018-10-05T17:45:00.837Z,3.63
2018-10-05T17:50:55.743Z,3.32
2018-10-05T17:56:50.743Z,3.6
2018-10-05T18:02:45.722Z,3.89
2018-10-05T18:08:40.771Z,5.12
2018-10-05T18:14:35.721Z,3.8
2018-10-05T18:20:30.741Z,3.64
2018-10-05T18:26:25.732Z,4.2
2018-10-05T18:32:20.738Z,4.19
2018-10-05T18:38:15.754Z,3.93
2018-10-05T18:44:10.841Z,2.73
2018-10-05T18:50:05.760Z,3.04
2018-10-05T18:56:00.783Z,2.52
2018-10-05T19:01:55.726Z,2.56
2018-10-05T19:07:50.721Z,3.12
2018-10-05T19:13:45.740Z,2.72
2018-10-05T19:19:40.739Z,2.26
2018-10-05T19:25:35.734Z,3.3
2018-10-05T19:31:30.739Z,2.43
2018-10-05T19:37:25.735Z,2.44
2018-10-05T19:43:20.759Z,1.95
2018-10-05T19:49:15.749Z,2.55
2018-10-05T19:55:10.807Z,2.47
2018-10-05T20:01:05.743Z,2.53
2018-10-05T20:07:00.724Z,2.25
2018-10-05T20:30:40.737Z,2.38
2018-10-05T20:30:40.964Z,2.57
2018-10-05T20:30:40.981Z,2.57
2018-10-05T20:30:41.009Z,2.57
2018-10-05T20:36:35.935Z,2.92
2018-10-05T20:42:30.730Z,2.47
2018-10-05T20:48:25.760Z,2.35
2018-10-05T20:54:20.722Z,2.19
2018-10-05T21:00:15.734Z,2.13
2018-10-05T21:06:10.743Z,1.55
2018-10-05T21:12:05.747Z,1.65
2018-10-05T21:18:00.723Z,2.36
2018-10-05T21:23:55.752Z,2.32
2018-10-05T21:29:50.772Z,2.67
2018-10-05T21:35:45.748Z,2.81
2018-10-05T21:41:40.756Z,2.66
2018-10-05T21:47:35.749Z,2.96
2018-10-05T21:53:30.894Z,2.36
2018-10-05T21:59:25.794Z,2.9
2018-10-05T22:05:20.737Z,6.29
2018-10-05T22:11:15.752Z,2.91
2018-10-05T22:17:10.718Z,3.32
2018-10-05T22:23:05.738Z,3.31
2018-10-05T22:29:00.782Z,3.01
2018-10-05T22:34:55.769Z,3.19
2018-10-05T22:40:50.723Z,2.73
2018-10-05T22:46:45.747Z,3.22
2018-10-05T22:52:40.751Z,2.97
2018-10-05T22:58:35.727Z,2.74
2018-10-05T23:04:30.737Z,2.94
2018-10-05T23:34:05.747Z,2.49
2018-10-05T23:34:05.837Z,3.2
2018-10-05T23:34:05.843Z,2.6
2018-10-05T23:34:05.859Z,2.6
2018-10-05T23:40:00.740Z,2.17
2018-10-05T23:45:55.795Z,2.75
2018-10-05T23:51:50.745Z,2.99
2018-10-05T23:57:45.815Z,3
